sensor_id;sensor_type;location;lat;lon;timestamp;temperature;humidity
4548;DHT22;2286;51.570;7.090;2023-03-11T00:00:52;1.10;1.00
4548;DHT22;2286;51.570;7.090;2023-03-11T00:03:21;1.10;1.00
4548;DHT22;2286;51.570;7.090;2023-03-11T00:05:50;1.10;1.00
4548;DHT22;2286;51.570;7.090;2023-03-11T00:08:20;1.10;1.00
4548;DHT22;2286;51.570;7.090;2023-03-11T00:10:50;1.10;1.00
4548;DHT22;2286;51.570;7.090;2023-03-11T00:13:17;1.10;1.00
4548;DHT22;2286;51.570;7.090;2023-03-11T00:15:47;1.20;1.00
4548;DHT22;2286;51.570;7.090;2023-03-11T00:18:14;1.10;1.00
4548;DHT22;2286;51.570;7.090;2023-03-11T00:20:45;1.20;1.00
4548;DHT22;2286;51.570;7.090;2023-03-11T00:23:14;1.20;1.00
4548;DHT22;2286;51.570;7.090;2023-03-11T00:25:43;1.20;1.00
4548;DHT22;2286;51.570;7.090;2023-03-11T00:28:10;1.20;1.00
4548;DHT22;2286;51.570;7.090;2023-03-11T00:30:38;1.20;1.00
4548;DHT22;2286;51.570;7.090;2023-03-11T00:33:07;1.20;1.00
4548;DHT22;2286;51.570;7.090;2023-03-11T00:35:34;1.20;1.00
4548;DHT22;2286;51.570;7.090;2023-03-11T00:38:05;1.10;1.00
4548;DHT22;2286;51.570;7.090;2023-03-11T00:40:34;1.20;1.00
4548;DHT22;2286;51.570;7.090;2023-03-11T00:43:02;1.20;1.00
4548;DHT22;2286;51.570;7.090;2023-03-11T00:45:29;1.10;1.00
4548;DHT22;2286;51.570;7.090;2023-03-11T00:47:57;1.10;1.00
4548;DHT22;2286;51.570;7.090;2023-03-11T00:50:26;1.10;1.00
4548;DHT22;2286;51.570;7.090;2023-03-11T00:52:54;1.10;99.90
4548;DHT22;2286;51.570;7.090;2023-03-11T00:55:25;1.10;1.00
4548;DHT22;2286;51.570;7.090;2023-03-11T00:57:53;1.10;1.00
4548;DHT22;2286;51.570;7.090;2023-03-11T01:00:22;1.10;1.00
4548;DHT22;2286;51.570;7.090;2023-03-11T01:02:49;1.10;1.00
4548;DHT22;2286;51.570;7.090;2023-03-11T01:05:18;1.10;1.00
4548;DHT22;2286;51.570;7.090;2023-03-11T01:07:46;1.10;99.90
4548;DHT22;2286;51.570;7.090;2023-03-11T01:10:13;1.00;99.90
4548;DHT22;2286;51.570;7.090;2023-03-11T01:12:42;1.10;99.90
4548;DHT22;2286;51.570;7.090;2023-03-11T01:15:15;1.00;99.90
4548;DHT22;2286;51.570;7.090;2023-03-11T01:17:43;1.10;99.90
4548;DHT22;2286;51.570;7.090;2023-03-11T01:20:11;1.00;99.90
4548;DHT22;2286;51.570;7.090;2023-03-11T01:22:38;1.00;99.90
4548;DHT22;2286;51.570;7.090;2023-03-11T01:25:05;1.00;99.90
4548;DHT22;2286;51.570;7.090;2023-03-11T01:27:32;1.00;99.90
4548;DHT22;2286;51.570;7.090;2023-03-11T01:30:01;1.00;99.90
4548;DHT22;2286;51.570;7.090;2023-03-11T01:32:28;1.00;99.90
4548;DHT22;2286;51.570;7.090;2023-03-11T01:34:55;1.00;99.90
4548;DHT22;2286;51.570;7.090;2023-03-11T01:37:22;1.00;99.90
4548;DHT22;2286;51.570;7.090;2023-03-11T01:39:49;1.00;1.00
4548;DHT22;2286;51.570;7.090;2023-03-11T01:42:16;1.00;1.00
4548;DHT22;2286;51.570;7.090;2023-03-11T01:44:43;1.00;1.00
4548;DHT22;2286;51.570;7.090;2023-03-11T01:47:36;1.00;1.00
4548;DHT22;2286;51.570;7.090;2023-03-11T01:50:06;0.90;1.00
4548;DHT22;2286;51.570;7.090;2023-03-11T01:52:34;0.90;1.00
4548;DHT22;2286;51.570;7.090;2023-03-11T01:55:02;0.90;1.00
4548;DHT22;2286;51.570;7.090;2023-03-11T01:57:31;0.90;1.00
4548;DHT22;2286;51.570;7.090;2023-03-11T01:59:59;0.90;1.00
4548;DHT22;2286;51.570;7.090;2023-03-11T02:02:33;0.90;1.00
4548;DHT22;2286;51.570;7.090;2023-03-11T02:05:04;0.90;1.00
4548;DHT22;2286;51.570;7.090;2023-03-11T02:07:31;0.80;1.00
4548;DHT22;2286;51.570;7.090;2023-03-11T02:09:58;0.80;1.00
4548;DHT22;2286;51.570;7.090;2023-03-11T02:12:28;0.80;1.00
4548;DHT22;2286;51.570;7.090;2023-03-11T02:14:57;0.70;1.00
4548;DHT22;2286;51.570;7.090;2023-03-11T02:17:25;0.70;1.00
4548;DHT22;2286;51.570;7.090;2023-03-11T02:20:07;0.60;1.00
4548;DHT22;2286;51.570;7.090;2023-03-11T02:22:38;0.50;1.00
4548;DHT22;2286;51.570;7.090;2023-03-11T02:25:10;0.50;1.00
4548;DHT22;2286;51.570;7.090;2023-03-11T02:27:44;0.50;1.00
4548;DHT22;2286;51.570;7.090;2023-03-11T02:30:13;0.40;1.00
4548;DHT22;2286;51.570;7.090;2023-03-11T02:32:43;0.40;3.80
4548;DHT22;2286;51.570;7.090;2023-03-11T02:35:12;0.40;6.10
4548;DHT22;2286;51.570;7.090;2023-03-11T02:37:43;0.40;10.00
4548;DHT22;2286;51.570;7.090;2023-03-11T02:40:38;0.30;58.90
4548;DHT22;2286;51.570;7.090;2023-03-11T02:43:09;0.30;99.50
4548;DHT22;2286;51.570;7.090;2023-03-11T02:45:38;0.30;99.90
4548;DHT22;2286;51.570;7.090;2023-03-11T02:48:08;0.20;99.90
4548;DHT22;2286;51.570;7.090;2023-03-11T02:50:37;0.20;99.90
4548;DHT22;2286;51.570;7.090;2023-03-11T02:53:04;0.20;99.90
4548;DHT22;2286;51.570;7.090;2023-03-11T02:55:32;0.20;99.90
4548;DHT22;2286;51.570;7.090;2023-03-11T02:57:59;0.20;99.90
4548;DHT22;2286;51.570;7.090;2023-03-11T03:00:27;0.20;99.90
4548;DHT22;2286;51.570;7.090;2023-03-11T03:02:54;0.20;99.90
4548;DHT22;2286;51.570;7.090;2023-03-11T03:05:21;0.20;1.00
4548;DHT22;2286;51.570;7.090;2023-03-11T03:07:49;0.30;1.00
4548;DHT22;2286;51.570;7.090;2023-03-11T03:10:17;0.30;1.00
4548;DHT22;2286;51.570;7.090;2023-03-11T03:12:45;0.30;1.00
4548;DHT22;2286;51.570;7.090;2023-03-11T03:15:12;0.30;1.00
4548;DHT22;2286;51.570;7.090;2023-03-11T03:17:42;0.40;1.00
4548;DHT22;2286;51.570;7.090;2023-03-11T03:20:10;0.40;1.00
4548;DHT22;2286;51.570;7.090;2023-03-11T03:22:39;0.40;1.00
4548;DHT22;2286;51.570;7.090;2023-03-11T03:25:07;0.40;1.00
4548;DHT22;2286;51.570;7.090;2023-03-11T03:27:34;0.40;99.90
4548;DHT22;2286;51.570;7.090;2023-03-11T03:30:02;0.40;99.90
4548;DHT22;2286;51.570;7.090;2023-03-11T03:32:29;0.40;99.90
4548;DHT22;2286;51.570;7.090;2023-03-11T03:34:58;0.40;99.90
4548;DHT22;2286;51.570;7.090;2023-03-11T03:37:25;0.30;97.80
4548;DHT22;2286;51.570;7.090;2023-03-11T03:39:53;0.30;78.30
4548;DHT22;2286;51.570;7.090;2023-03-11T03:42:21;0.40;39.70
4548;DHT22;2286;51.570;7.090;2023-03-11T03:44:50;0.40;1.00
4548;DHT22;2286;51.570;7.090;2023-03-11T03:47:18;0.40;1.00
4548;DHT22;2286;51.570;7.090;2023-03-11T03:49:45;0.40;1.00
4548;DHT22;2286;51.570;7.090;2023-03-11T03:52:13;0.40;1.00
4548;DHT22;2286;51.570;7.090;2023-03-11T03:54:40;0.40;99.90
4548;DHT22;2286;51.570;7.090;2023-03-11T03:57:07;0.40;99.90
4548;DHT22;2286;51.570;7.090;2023-03-11T03:59:34;0.40;99.90
4548;DHT22;2286;51.570;7.090;2023-03-11T04:02:01;0.40;99.90
4548;DHT22;2286;51.570;7.090;2023-03-11T04:04:29;0.40;99.90
4548;DHT22;2286;51.570;7.090;2023-03-11T04:06:55;0.40;99.90
4548;DHT22;2286;51.570;7.090;2023-03-11T04:09:24;0.40;99.90
4548;DHT22;2286;51.570;7.090;2023-03-11T04:11:51;0.40;99.90
4548;DHT22;2286;51.570;7.090;2023-03-11T04:14:18;0.40;92.80
4548;DHT22;2286;51.570;7.090;2023-03-11T04:16:45;0.40;9.00
4548;DHT22;2286;51.570;7.090;2023-03-11T04:19:12;0.50;1.00
4548;DHT22;2286;51.570;7.090;2023-03-11T04:21:38;0.50;1.00
4548;DHT22;2286;51.570;7.090;2023-03-11T04:24:06;0.50;1.00
4548;DHT22;2286;51.570;7.090;2023-03-11T04:26:34;0.50;1.00
4548;DHT22;2286;51.570;7.090;2023-03-11T04:29:01;0.50;1.00
4548;DHT22;2286;51.570;7.090;2023-03-11T04:31:28;0.50;1.00
4548;DHT22;2286;51.570;7.090;2023-03-11T04:33:55;0.40;1.00
4548;DHT22;2286;51.570;7.090;2023-03-11T04:36:22;0.40;1.00
4548;DHT22;2286;51.570;7.090;2023-03-11T04:38:49;0.40;1.00
4548;DHT22;2286;51.570;7.090;2023-03-11T04:41:16;0.50;1.00
4548;DHT22;2286;51.570;7.090;2023-03-11T04:43:44;0.40;1.00
4548;DHT22;2286;51.570;7.090;2023-03-11T04:46:11;0.40;1.00
4548;DHT22;2286;51.570;7.090;2023-03-11T04:48:38;0.40;1.00
4548;DHT22;2286;51.570;7.090;2023-03-11T04:51:05;0.40;1.00
4548;DHT22;2286;51.570;7.090;2023-03-11T04:53:32;0.50;1.00
4548;DHT22;2286;51.570;7.090;2023-03-11T04:55:59;0.40;1.00
4548;DHT22;2286;51.570;7.090;2023-03-11T04:58:26;0.40;1.00
4548;DHT22;2286;51.570;7.090;2023-03-11T05:00:55;0.40;1.00
4548;DHT22;2286;51.570;7.090;2023-03-11T05:03:22;0.40;1.00
4548;DHT22;2286;51.570;7.090;2023-03-11T05:05:49;0.40;1.00
4548;DHT22;2286;51.570;7.090;2023-03-11T05:08:17;0.40;1.00
4548;DHT22;2286;51.570;7.090;2023-03-11T05:10:44;0.30;1.00
4548;DHT22;2286;51.570;7.090;2023-03-11T05:13:11;0.30;1.00
4548;DHT22;2286;51.570;7.090;2023-03-11T05:15:38;0.40;1.00
4548;DHT22;2286;51.570;7.090;2023-03-11T05:18:07;0.30;1.00
4548;DHT22;2286;51.570;7.090;2023-03-11T05:20:34;0.30;1.00
4548;DHT22;2286;51.570;7.090;2023-03-11T05:23:01;0.20;1.00
4548;DHT22;2286;51.570;7.090;2023-03-11T05:25:28;0.20;1.00
4548;DHT22;2286;51.570;7.090;2023-03-11T05:27:56;0.20;1.00
4548;DHT22;2286;51.570;7.090;2023-03-11T05:30:22;0.20;1.00
4548;DHT22;2286;51.570;7.090;2023-03-11T05:32:50;0.20;1.00
4548;DHT22;2286;51.570;7.090;2023-03-11T05:35:18;0.20;1.00
4548;DHT22;2286;51.570;7.090;2023-03-11T05:37:45;0.30;1.00
4548;DHT22;2286;51.570;7.090;2023-03-11T05:40:14;0.20;1.00
4548;DHT22;2286;51.570;7.090;2023-03-11T05:42:41;0.20;1.00
4548;DHT22;2286;51.570;7.090;2023-03-11T05:45:09;0.20;1.00
4548;DHT22;2286;51.570;7.090;2023-03-11T05:47:36;0.20;1.00
4548;DHT22;2286;51.570;7.090;2023-03-11T05:50:04;0.20;1.00
4548;DHT22;2286;51.570;7.090;2023-03-11T05:52:32;0.20;1.00
4548;DHT22;2286;51.570;7.090;2023-03-11T05:54:59;0.20;1.00
4548;DHT22;2286;51.570;7.090;2023-03-11T05:57:26;0.20;1.00
4548;DHT22;2286;51.570;7.090;2023-03-11T05:59:53;0.20;1.00
4548;DHT22;2286;51.570;7.090;2023-03-11T06:02:20;0.20;1.00
4548;DHT22;2286;51.570;7.090;2023-03-11T06:04:47;0.20;1.00
4548;DHT22;2286;51.570;7.090;2023-03-11T06:07:14;0.20;1.00
4548;DHT22;2286;51.570;7.090;2023-03-11T06:09:43;0.20;1.00
4548;DHT22;2286;51.570;7.090;2023-03-11T06:12:10;0.10;1.00
4548;DHT22;2286;51.570;7.090;2023-03-11T06:14:36;0.10;1.00
4548;DHT22;2286;51.570;7.090;2023-03-11T06:17:04;0.10;1.00
4548;DHT22;2286;51.570;7.090;2023-03-11T06:19:30;0.00;1.00
4548;DHT22;2286;51.570;7.090;2023-03-11T06:21:57;0.00;1.00
4548;DHT22;2286;51.570;7.090;2023-03-11T06:24:24;0.00;1.00
4548;DHT22;2286;51.570;7.090;2023-03-11T06:26:53;0.00;1.00
4548;DHT22;2286;51.570;7.090;2023-03-11T06:29:20;0.00;1.00
4548;DHT22;2286;51.570;7.090;2023-03-11T06:31:49;0.00;1.00
4548;DHT22;2286;51.570;7.090;2023-03-11T06:34:16;0.10;1.00
4548;DHT22;2286;51.570;7.090;2023-03-11T06:36:43;0.10;1.00
4548;DHT22;2286;51.570;7.090;2023-03-11T06:39:12;0.10;1.00
4548;DHT22;2286;51.570;7.090;2023-03-11T06:41:39;0.10;1.00
4548;DHT22;2286;51.570;7.090;2023-03-11T06:44:08;0.20;1.00
4548;DHT22;2286;51.570;7.090;2023-03-11T06:46:35;0.20;1.00
4548;DHT22;2286;51.570;7.090;2023-03-11T06:49:02;0.30;1.00
4548;DHT22;2286;51.570;7.090;2023-03-11T06:51:29;0.30;99.90
4548;DHT22;2286;51.570;7.090;2023-03-11T06:53:56;0.30;99.90
4548;DHT22;2286;51.570;7.090;2023-03-11T06:56:23;0.30;99.90
4548;DHT22;2286;51.570;7.090;2023-03-11T06:58:50;0.30;99.90
4548;DHT22;2286;51.570;7.090;2023-03-11T07:01:19;0.30;99.90
4548;DHT22;2286;51.570;7.090;2023-03-11T07:03:47;0.30;99.90
4548;DHT22;2286;51.570;7.090;2023-03-11T07:06:16;0.20;99.90
4548;DHT22;2286;51.570;7.090;2023-03-11T07:08:45;0.30;99.90
4548;DHT22;2286;51.570;7.090;2023-03-11T07:11:14;0.20;99.90
4548;DHT22;2286;51.570;7.090;2023-03-11T07:13:41;0.20;99.90
4548;DHT22;2286;51.570;7.090;2023-03-11T07:16:11;0.30;99.90
4548;DHT22;2286;51.570;7.090;2023-03-11T07:18:41;0.30;99.90
4548;DHT22;2286;51.570;7.090;2023-03-11T07:21:11;0.40;99.90
4548;DHT22;2286;51.570;7.090;2023-03-11T07:23:39;0.40;99.90
4548;DHT22;2286;51.570;7.090;2023-03-11T07:26:07;0.40;99.90
4548;DHT22;2286;51.570;7.090;2023-03-11T07:28:34;0.50;99.90
4548;DHT22;2286;51.570;7.090;2023-03-11T07:31:06;0.50;99.90
4548;DHT22;2286;51.570;7.090;2023-03-11T07:33:33;0.60;99.90
4548;DHT22;2286;51.570;7.090;2023-03-11T07:36:06;0.60;99.90
4548;DHT22;2286;51.570;7.090;2023-03-11T07:38:33;0.60;99.90
4548;DHT22;2286;51.570;7.090;2023-03-11T07:41:00;0.70;99.90
4548;DHT22;2286;51.570;7.090;2023-03-11T07:43:27;0.70;26.70
4548;DHT22;2286;51.570;7.090;2023-03-11T07:46:02;0.80;6.80
4548;DHT22;2286;51.570;7.090;2023-03-11T07:48:29;0.80;1.00
4548;DHT22;2286;51.570;7.090;2023-03-11T07:51:00;0.80;1.00
4548;DHT22;2286;51.570;7.090;2023-03-11T07:53:29;0.90;1.00
4548;DHT22;2286;51.570;7.090;2023-03-11T07:55:56;0.90;1.00
4548;DHT22;2286;51.570;7.090;2023-03-11T07:58:24;1.00;1.00
4548;DHT22;2286;51.570;7.090;2023-03-11T08:00:51;1.00;1.00
4548;DHT22;2286;51.570;7.090;2023-03-11T08:03:19;1.00;1.00
4548;DHT22;2286;51.570;7.090;2023-03-11T08:05:46;1.10;1.00
4548;DHT22;2286;51.570;7.090;2023-03-11T08:08:12;1.10;1.00
4548;DHT22;2286;51.570;7.090;2023-03-11T08:10:41;1.20;1.00
4548;DHT22;2286;51.570;7.090;2023-03-11T08:13:08;1.30;1.00
4548;DHT22;2286;51.570;7.090;2023-03-11T08:15:35;1.40;1.00
4548;DHT22;2286;51.570;7.090;2023-03-11T08:18:03;1.60;1.00
4548;DHT22;2286;51.570;7.090;2023-03-11T08:20:30;1.70;1.00
4548;DHT22;2286;51.570;7.090;2023-03-11T08:22:57;1.80;1.00
4548;DHT22;2286;51.570;7.090;2023-03-11T08:25:24;1.90;1.00
4548;DHT22;2286;51.570;7.090;2023-03-11T08:27:52;2.00;1.00
4548;DHT22;2286;51.570;7.090;2023-03-11T08:30:20;2.00;1.00
4548;DHT22;2286;51.570;7.090;2023-03-11T08:32:47;2.10;1.00
4548;DHT22;2286;51.570;7.090;2023-03-11T08:35:15;2.10;1.00
4548;DHT22;2286;51.570;7.090;2023-03-11T08:37:42;2.10;1.00
4548;DHT22;2286;51.570;7.090;2023-03-11T08:40:10;2.10;1.00
4548;DHT22;2286;51.570;7.090;2023-03-11T08:42:37;2.20;1.00
4548;DHT22;2286;51.570;7.090;2023-03-11T08:45:07;2.20;1.00
4548;DHT22;2286;51.570;7.090;2023-03-11T08:47:34;2.20;1.00
4548;DHT22;2286;51.570;7.090;2023-03-11T08:50:02;2.30;1.00
4548;DHT22;2286;51.570;7.090;2023-03-11T08:52:29;2.30;99.90
4548;DHT22;2286;51.570;7.090;2023-03-11T08:54:56;2.40;99.90
4548;DHT22;2286;51.570;7.090;2023-03-11T08:57:23;2.50;99.90
4548;DHT22;2286;51.570;7.090;2023-03-11T08:59:50;2.60;99.90
4548;DHT22;2286;51.570;7.090;2023-03-11T09:02:18;2.70;99.90
4548;DHT22;2286;51.570;7.090;2023-03-11T09:04:45;2.80;99.90
4548;DHT22;2286;51.570;7.090;2023-03-11T09:07:13;2.90;99.90
4548;DHT22;2286;51.570;7.090;2023-03-11T09:09:40;3.00;99.90
4548;DHT22;2286;51.570;7.090;2023-03-11T09:12:08;3.20;99.90
4548;DHT22;2286;51.570;7.090;2023-03-11T09:14:38;3.20;99.90
4548;DHT22;2286;51.570;7.090;2023-03-11T09:17:05;3.30;99.90
4548;DHT22;2286;51.570;7.090;2023-03-11T09:19:34;3.50;99.90
4548;DHT22;2286;51.570;7.090;2023-03-11T09:22:02;3.50;99.90
4548;DHT22;2286;51.570;7.090;2023-03-11T09:24:31;3.70;99.90
4548;DHT22;2286;51.570;7.090;2023-03-11T09:26:58;3.80;99.90
4548;DHT22;2286;51.570;7.090;2023-03-11T09:29:25;3.90;99.90
4548;DHT22;2286;51.570;7.090;2023-03-11T09:31:52;4.00;99.90
4548;DHT22;2286;51.570;7.090;2023-03-11T09:34:20;4.00;99.90
4548;DHT22;2286;51.570;7.090;2023-03-11T09:36:48;4.20;99.90
4548;DHT22;2286;51.570;7.090;2023-03-11T09:39:15;4.30;99.90
4548;DHT22;2286;51.570;7.090;2023-03-11T09:41:48;4.40;99.90
4548;DHT22;2286;51.570;7.090;2023-03-11T09:44:21;4.60;99.90
4548;DHT22;2286;51.570;7.090;2023-03-11T09:47:22;4.90;99.90
4548;DHT22;2286;51.570;7.090;2023-03-11T09:50:11;5.40;99.90
4548;DHT22;2286;51.570;7.090;2023-03-11T09:52:44;5.80;99.90
4548;DHT22;2286;51.570;7.090;2023-03-11T09:55:26;5.80;99.90
4548;DHT22;2286;51.570;7.090;2023-03-11T09:57:58;5.70;99.90
4548;DHT22;2286;51.570;7.090;2023-03-11T10:00:27;6.30;99.90
4548;DHT22;2286;51.570;7.090;2023-03-11T10:02:54;6.60;99.90
4548;DHT22;2286;51.570;7.090;2023-03-11T10:05:23;7.70;99.90
4548;DHT22;2286;51.570;7.090;2023-03-11T10:07:58;8.50;99.90
4548;DHT22;2286;51.570;7.090;2023-03-11T10:10:29;8.40;99.90
4548;DHT22;2286;51.570;7.090;2023-03-11T10:13:05;9.10;99.90
4548;DHT22;2286;51.570;7.090;2023-03-11T10:15:41;9.10;99.90
4548;DHT22;2286;51.570;7.090;2023-03-11T10:18:23;8.70;99.90
4548;DHT22;2286;51.570;7.090;2023-03-11T10:20:56;8.10;99.90
4548;DHT22;2286;51.570;7.090;2023-03-11T10:23:30;7.20;99.90
4548;DHT22;2286;51.570;7.090;2023-03-11T10:26:02;6.70;99.90
4548;DHT22;2286;51.570;7.090;2023-03-11T10:28:35;6.60;99.90
4548;DHT22;2286;51.570;7.090;2023-03-11T10:31:11;7.40;99.90
4548;DHT22;2286;51.570;7.090;2023-03-11T10:33:46;8.70;99.90
4548;DHT22;2286;51.570;7.090;2023-03-11T10:36:18;9.60;99.90
4548;DHT22;2286;51.570;7.090;2023-03-11T10:38:52;10.50;99.90
4548;DHT22;2286;51.570;7.090;2023-03-11T10:41:22;11.50;99.90
4548;DHT22;2286;51.570;7.090;2023-03-11T10:43:52;11.60;99.90
4548;DHT22;2286;51.570;7.090;2023-03-11T10:46:23;11.40;99.90
4548;DHT22;2286;51.570;7.090;2023-03-11T10:48:50;11.30;99.90
4548;DHT22;2286;51.570;7.090;2023-03-11T10:51:19;11.20;99.90
4548;DHT22;2286;51.570;7.090;2023-03-11T10:53:50;11.20;99.90
4548;DHT22;2286;51.570;7.090;2023-03-11T10:56:27;11.60;99.90
4548;DHT22;2286;51.570;7.090;2023-03-11T10:58:54;12.30;99.90
4548;DHT22;2286;51.570;7.090;2023-03-11T11:01:22;12.40;99.90
4548;DHT22;2286;51.570;7.090;2023-03-11T11:03:52;12.10;99.90
4548;DHT22;2286;51.570;7.090;2023-03-11T11:06:23;13.10;99.90
4548;DHT22;2286;51.570;7.090;2023-03-11T11:09:14;14.10;99.90
4548;DHT22;2286;51.570;7.090;2023-03-11T11:11:41;14.80;99.90
4548;DHT22;2286;51.570;7.090;2023-03-11T11:14:09;14.60;99.90
4548;DHT22;2286;51.570;7.090;2023-03-11T11:16:36;13.60;99.90
4548;DHT22;2286;51.570;7.090;2023-03-11T11:19:06;12.90;99.90
4548;DHT22;2286;51.570;7.090;2023-03-11T11:21:35;12.40;99.90
4548;DHT22;2286;51.570;7.090;2023-03-11T11:24:13;12.60;99.90
4548;DHT22;2286;51.570;7.090;2023-03-11T11:26:43;13.20;99.90
4548;DHT22;2286;51.570;7.090;2023-03-11T11:29:28;12.90;99.90
4548;DHT22;2286;51.570;7.090;2023-03-11T11:32:10;12.10;99.90
4548;DHT22;2286;51.570;7.090;2023-03-11T11:34:41;11.80;99.90
4548;DHT22;2286;51.570;7.090;2023-03-11T11:37:11;11.50;99.90
4548;DHT22;2286;51.570;7.090;2023-03-11T11:39:45;10.30;99.90
4548;DHT22;2286;51.570;7.090;2023-03-11T11:42:16;10.10;99.90
4548;DHT22;2286;51.570;7.090;2023-03-11T11:44:47;11.30;99.90
4548;DHT22;2286;51.570;7.090;2023-03-11T11:47:19;12.50;99.90
4548;DHT22;2286;51.570;7.090;2023-03-11T11:49:51;13.80;99.90
4548;DHT22;2286;51.570;7.090;2023-03-11T11:52:19;14.30;99.90
4548;DHT22;2286;51.570;7.090;2023-03-11T11:54:51;13.90;99.90
4548;DHT22;2286;51.570;7.090;2023-03-11T11:57:20;13.00;99.90
4548;DHT22;2286;51.570;7.090;2023-03-11T11:59:48;13.10;99.90
4548;DHT22;2286;51.570;7.090;2023-03-11T12:02:31;14.40;99.90
4548;DHT22;2286;51.570;7.090;2023-03-11T12:05:06;15.70;99.90
4548;DHT22;2286;51.570;7.090;2023-03-11T12:07:43;16.00;99.90
4548;DHT22;2286;51.570;7.090;2023-03-11T12:10:22;15.40;99.90
4548;DHT22;2286;51.570;7.090;2023-03-11T12:13:16;14.70;99.90
4548;DHT22;2286;51.570;7.090;2023-03-11T12:15:49;15.60;99.90
4548;DHT22;2286;51.570;7.090;2023-03-11T12:18:21;16.50;99.90
4548;DHT22;2286;51.570;7.090;2023-03-11T12:20:53;17.30;99.90
4548;DHT22;2286;51.570;7.090;2023-03-11T12:23:33;17.70;99.90
4548;DHT22;2286;51.570;7.090;2023-03-11T12:26:14;17.90;99.90
4548;DHT22;2286;51.570;7.090;2023-03-11T12:28:47;18.60;99.90
4548;DHT22;2286;51.570;7.090;2023-03-11T12:31:15;19.60;99.90
4548;DHT22;2286;51.570;7.090;2023-03-11T12:33:43;17.60;99.90
4548;DHT22;2286;51.570;7.090;2023-03-11T12:36:21;17.30;99.90
4548;DHT22;2286;51.570;7.090;2023-03-11T12:38:49;17.90;99.90
4548;DHT22;2286;51.570;7.090;2023-03-11T12:41:34;18.20;99.90
4548;DHT22;2286;51.570;7.090;2023-03-11T12:44:31;18.60;99.90
4548;DHT22;2286;51.570;7.090;2023-03-11T12:49:45;18.40;99.90
4548;DHT22;2286;51.570;7.090;2023-03-11T12:52:18;18.90;99.90
4548;DHT22;2286;51.570;7.090;2023-03-11T12:54:47;19.30;99.90
4548;DHT22;2286;51.570;7.090;2023-03-11T12:57:30;18.80;99.90
4548;DHT22;2286;51.570;7.090;2023-03-11T13:00:21;18.20;99.90
4548;DHT22;2286;51.570;7.090;2023-03-11T13:03:14;17.50;99.90
4548;DHT22;2286;51.570;7.090;2023-03-11T13:05:53;16.70;99.90
4548;DHT22;2286;51.570;7.090;2023-03-11T13:08:24;16.00;99.90
4548;DHT22;2286;51.570;7.090;2023-03-11T13:10:52;15.00;99.90
4548;DHT22;2286;51.570;7.090;2023-03-11T13:13:39;15.30;99.90
4548;DHT22;2286;51.570;7.090;2023-03-11T13:16:34;15.70;99.90
4548;DHT22;2286;51.570;7.090;2023-03-11T13:19:33;16.80;99.90
4548;DHT22;2286;51.570;7.090;2023-03-11T13:22:02;16.30;99.90
4548;DHT22;2286;51.570;7.090;2023-03-11T13:24:47;14.50;99.90
4548;DHT22;2286;51.570;7.090;2023-03-11T13:30:15;15.90;99.90
4548;DHT22;2286;51.570;7.090;2023-03-11T13:35:58;18.40;99.90
4548;DHT22;2286;51.570;7.090;2023-03-11T13:38:40;19.00;99.90
4548;DHT22;2286;51.570;7.090;2023-03-11T13:41:14;20.20;99.90
4548;DHT22;2286;51.570;7.090;2023-03-11T13:43:46;21.00;99.90
4548;DHT22;2286;51.570;7.090;2023-03-11T13:46:24;21.40;99.90
4548;DHT22;2286;51.570;7.090;2023-03-11T13:49:01;21.90;99.90
4548;DHT22;2286;51.570;7.090;2023-03-11T13:51:36;21.10;99.90
4548;DHT22;2286;51.570;7.090;2023-03-11T13:54:06;20.60;99.90
4548;DHT22;2286;51.570;7.090;2023-03-11T13:56:42;21.20;99.90
4548;DHT22;2286;51.570;7.090;2023-03-11T13:59:14;22.00;99.90
4548;DHT22;2286;51.570;7.090;2023-03-11T14:01:49;21.20;99.90
4548;DHT22;2286;51.570;7.090;2023-03-11T14:04:19;18.80;99.90
4548;DHT22;2286;51.570;7.090;2023-03-11T14:06:49;18.50;99.90
4548;DHT22;2286;51.570;7.090;2023-03-11T14:09:18;18.80;99.90
4548;DHT22;2286;51.570;7.090;2023-03-11T14:11:46;19.60;99.90
4548;DHT22;2286;51.570;7.090;2023-03-11T14:14:32;20.60;99.90
4548;DHT22;2286;51.570;7.090;2023-03-11T14:17:02;20.50;99.90
4548;DHT22;2286;51.570;7.090;2023-03-11T14:19:30;20.60;99.90
4548;DHT22;2286;51.570;7.090;2023-03-11T14:21:56;19.70;99.90
4548;DHT22;2286;51.570;7.090;2023-03-11T14:24:26;21.00;99.90
4548;DHT22;2286;51.570;7.090;2023-03-11T14:26:55;21.70;99.90
4548;DHT22;2286;51.570;7.090;2023-03-11T14:29:29;22.20;99.90
4548;DHT22;2286;51.570;7.090;2023-03-11T14:31:56;21.50;99.90
4548;DHT22;2286;51.570;7.090;2023-03-11T14:34:26;21.70;99.90
4548;DHT22;2286;51.570;7.090;2023-03-11T14:36:56;22.30;99.90
4548;DHT22;2286;51.570;7.090;2023-03-11T14:39:28;22.60;99.90
4548;DHT22;2286;51.570;7.090;2023-03-11T14:42:00;22.20;99.90
4548;DHT22;2286;51.570;7.090;2023-03-11T14:44:30;20.30;99.90
4548;DHT22;2286;51.570;7.090;2023-03-11T14:47:07;20.10;99.90
4548;DHT22;2286;51.570;7.090;2023-03-11T14:49:37;20.20;99.90
4548;DHT22;2286;51.570;7.090;2023-03-11T14:52:09;19.30;99.90
4548;DHT22;2286;51.570;7.090;2023-03-11T14:54:40;17.30;99.90
4548;DHT22;2286;51.570;7.090;2023-03-11T14:57:15;15.90;99.90
4548;DHT22;2286;51.570;7.090;2023-03-11T14:59:47;15.40;99.90
4548;DHT22;2286;51.570;7.090;2023-03-11T15:02:33;15.50;99.90
4548;DHT22;2286;51.570;7.090;2023-03-11T15:05:08;15.50;99.90
4548;DHT22;2286;51.570;7.090;2023-03-11T15:07:36;15.40;99.90
4548;DHT22;2286;51.570;7.090;2023-03-11T15:10:07;15.60;99.90
4548;DHT22;2286;51.570;7.090;2023-03-11T15:12:38;16.00;99.90
4548;DHT22;2286;51.570;7.090;2023-03-11T15:15:23;16.70;99.90
4548;DHT22;2286;51.570;7.090;2023-03-11T15:17:55;15.90;99.90
4548;DHT22;2286;51.570;7.090;2023-03-11T15:20:25;15.60;99.90
4548;DHT22;2286;51.570;7.090;2023-03-11T15:22:55;14.90;99.90
4548;DHT22;2286;51.570;7.090;2023-03-11T15:25:25;15.30;99.90
4548;DHT22;2286;51.570;7.090;2023-03-11T15:27:52;15.30;99.90
4548;DHT22;2286;51.570;7.090;2023-03-11T15:30:22;15.10;99.90
4548;DHT22;2286;51.570;7.090;2023-03-11T15:32:49;14.70;99.90
4548;DHT22;2286;51.570;7.090;2023-03-11T15:35:19;14.40;99.90
4548;DHT22;2286;51.570;7.090;2023-03-11T15:37:49;13.90;99.90
4548;DHT22;2286;51.570;7.090;2023-03-11T15:40:20;13.20;99.90
4548;DHT22;2286;51.570;7.090;2023-03-11T15:42:48;12.90;99.20
4548;DHT22;2286;51.570;7.090;2023-03-11T15:45:16;12.30;97.60
4548;DHT22;2286;51.570;7.090;2023-03-11T15:47:44;12.00;96.40
4548;DHT22;2286;51.570;7.090;2023-03-11T15:50:14;11.80;96.30
4548;DHT22;2286;51.570;7.090;2023-03-11T15:52:41;11.30;94.90
4548;DHT22;2286;51.570;7.090;2023-03-11T15:55:11;11.40;95.60
4548;DHT22;2286;51.570;7.090;2023-03-11T15:57:38;11.70;96.70
4548;DHT22;2286;51.570;7.090;2023-03-11T16:00:14;12.10;98.10
4548;DHT22;2286;51.570;7.090;2023-03-11T16:02:43;12.30;98.40
4548;DHT22;2286;51.570;7.090;2023-03-11T16:05:17;11.90;97.70
4548;DHT22;2286;51.570;7.090;2023-03-11T16:07:44;12.00;98.10
4548;DHT22;2286;51.570;7.090;2023-03-11T16:10:15;11.70;97.30
4548;DHT22;2286;51.570;7.090;2023-03-11T16:12:42;11.90;98.20
4548;DHT22;2286;51.570;7.090;2023-03-11T16:15:18;12.10;98.20
4548;DHT22;2286;51.570;7.090;2023-03-11T16:17:46;12.10;98.00
4548;DHT22;2286;51.570;7.090;2023-03-11T16:20:15;11.90;97.40
4548;DHT22;2286;51.570;7.090;2023-03-11T16:22:42;11.20;94.90
4548;DHT22;2286;51.570;7.090;2023-03-11T16:25:19;10.80;93.90
4548;DHT22;2286;51.570;7.090;2023-03-11T16:27:48;10.40;92.80
4548;DHT22;2286;51.570;7.090;2023-03-11T16:30:15;9.90;92.90
4548;DHT22;2286;51.570;7.090;2023-03-11T16:32:42;10.00;92.80
4548;DHT22;2286;51.570;7.090;2023-03-11T16:35:10;9.90;93.10
4548;DHT22;2286;51.570;7.090;2023-03-11T16:37:37;9.60;92.30
4548;DHT22;2286;51.570;7.090;2023-03-11T16:40:11;9.30;91.90
4548;DHT22;2286;51.570;7.090;2023-03-11T16:42:40;9.20;91.50
4548;DHT22;2286;51.570;7.090;2023-03-11T16:45:09;9.00;91.20
4548;DHT22;2286;51.570;7.090;2023-03-11T16:47:36;8.80;90.80